sensor_id;sensor_type;location;lat;lon;timestamp;temperature;humidity
30983;DHT22;17660;52.578;13.288;2023-04-03T00:01:26;2.50;98.60
30983;DHT22;17660;52.578;13.288;2023-04-03T00:03:53;2.50;98.60
30983;DHT22;17660;52.578;13.288;2023-04-03T00:06:19;2.50;98.60
30983;DHT22;17660;52.578;13.288;2023-04-03T00:08:46;2.50;98.80
30983;DHT22;17660;52.578;13.288;2023-04-03T00:11:13;2.50;98.80
30983;DHT22;17660;52.578;13.288;2023-04-03T00:13:39;2.50;98.50
30983;DHT22;17660;52.578;13.288;2023-04-03T00:16:07;2.60;98.40
30983;DHT22;17660;52.578;13.288;2023-04-03T00:18:34;2.60;98.50
30983;DHT22;17660;52.578;13.288;2023-04-03T00:21:00;2.60;98.50
30983;DHT22;17660;52.578;13.288;2023-04-03T00:23:27;2.60;98.40
30983;DHT22;17660;52.578;13.288;2023-04-03T00:25:54;2.60;98.40
30983;DHT22;17660;52.578;13.288;2023-04-03T00:28:21;2.60;98.40
30983;DHT22;17660;52.578;13.288;2023-04-03T00:30:48;2.60;98.10
30983;DHT22;17660;52.578;13.288;2023-04-03T00:33:15;2.60;98.20
30983;DHT22;17660;52.578;13.288;2023-04-03T00:35:42;2.50;98.30
30983;DHT22;17660;52.578;13.288;2023-04-03T00:38:09;2.50;98.50
30983;DHT22;17660;52.578;13.288;2023-04-03T00:40:37;2.50;98.30
30983;DHT22;17660;52.578;13.288;2023-04-03T00:43:11;2.50;98.50
30983;DHT22;17660;52.578;13.288;2023-04-03T00:45:40;2.50;98.60
30983;DHT22;17660;52.578;13.288;2023-04-03T00:48:08;2.50;98.50
30983;DHT22;17660;52.578;13.288;2023-04-03T00:50:37;2.50;98.40
30983;DHT22;17660;52.578;13.288;2023-04-03T00:53:05;2.50;98.40
30983;DHT22;17660;52.578;13.288;2023-04-03T00:55:32;2.50;98.40
30983;DHT22;17660;52.578;13.288;2023-04-03T00:58:00;2.50;98.30
30983;DHT22;17660;52.578;13.288;2023-04-03T01:00:27;2.50;98.40
30983;DHT22;17660;52.578;13.288;2023-04-03T01:02:54;2.50;98.30
30983;DHT22;17660;52.578;13.288;2023-04-03T01:05:21;2.50;98.30
30983;DHT22;17660;52.578;13.288;2023-04-03T01:07:48;2.40;98.30
30983;DHT22;17660;52.578;13.288;2023-04-03T01:10:16;2.50;98.30
30983;DHT22;17660;52.578;13.288;2023-04-03T01:12:44;2.50;98.30
30983;DHT22;17660;52.578;13.288;2023-04-03T01:15:17;2.40;98.30
30983;DHT22;17660;52.578;13.288;2023-04-03T01:17:51;2.40;98.40
30983;DHT22;17660;52.578;13.288;2023-04-03T01:25:37;2.30;98.50
30983;DHT22;17660;52.578;13.288;2023-04-03T01:28:05;2.40;98.40
30983;DHT22;17660;52.578;13.288;2023-04-03T01:30:34;2.40;98.50
30983;DHT22;17660;52.578;13.288;2023-04-03T01:33:03;2.40;98.40
30983;DHT22;17660;52.578;13.288;2023-04-03T01:35:29;2.40;98.40
30983;DHT22;17660;52.578;13.288;2023-04-03T01:37:56;2.30;98.30
30983;DHT22;17660;52.578;13.288;2023-04-03T01:40:23;2.40;98.50
30983;DHT22;17660;52.578;13.288;2023-04-03T01:42:49;2.40;98.40
30983;DHT22;17660;52.578;13.288;2023-04-03T01:45:16;2.40;98.50
30983;DHT22;17660;52.578;13.288;2023-04-03T01:47:43;2.30;98.60
30983;DHT22;17660;52.578;13.288;2023-04-03T01:50:09;2.20;98.70
30983;DHT22;17660;52.578;13.288;2023-04-03T01:52:36;2.20;98.70
30983;DHT22;17660;52.578;13.288;2023-04-03T01:55:03;2.30;98.70
30983;DHT22;17660;52.578;13.288;2023-04-03T01:57:29;2.20;98.90
30983;DHT22;17660;52.578;13.288;2023-04-03T01:59:56;2.20;99.00
30983;DHT22;17660;52.578;13.288;2023-04-03T02:02:23;2.20;99.00
30983;DHT22;17660;52.578;13.288;2023-04-03T02:04:49;2.20;99.10
30983;DHT22;17660;52.578;13.288;2023-04-03T02:07:16;2.20;99.10
30983;DHT22;17660;52.578;13.288;2023-04-03T02:09:43;2.10;99.10
30983;DHT22;17660;52.578;13.288;2023-04-03T02:12:09;2.10;99.20
30983;DHT22;17660;52.578;13.288;2023-04-03T02:14:36;2.10;99.30
30983;DHT22;17660;52.578;13.288;2023-04-03T02:17:03;2.10;99.20
30983;DHT22;17660;52.578;13.288;2023-04-03T02:19:35;2.10;99.30
30983;DHT22;17660;52.578;13.288;2023-04-03T02:22:02;2.10;99.30
30983;DHT22;17660;52.578;13.288;2023-04-03T02:24:29;2.10;99.40
30983;DHT22;17660;52.578;13.288;2023-04-03T02:26:56;2.00;99.50
30983;DHT22;17660;52.578;13.288;2023-04-03T02:29:23;2.00;99.60
30983;DHT22;17660;52.578;13.288;2023-04-03T02:31:50;1.90;99.90
30983;DHT22;17660;52.578;13.288;2023-04-03T02:34:17;1.90;99.90
30983;DHT22;17660;52.578;13.288;2023-04-03T02:36:44;1.80;99.90
30983;DHT22;17660;52.578;13.288;2023-04-03T02:39:11;1.80;99.90
30983;DHT22;17660;52.578;13.288;2023-04-03T02:41:37;1.70;99.90
30983;DHT22;17660;52.578;13.288;2023-04-03T02:44:05;1.70;99.90
30983;DHT22;17660;52.578;13.288;2023-04-03T02:46:32;1.60;99.90
30983;DHT22;17660;52.578;13.288;2023-04-03T02:48:59;2.70;99.90
30983;DHT22;17660;52.578;13.288;2023-04-03T02:51:26;1.60;99.90
30983;DHT22;17660;52.578;13.288;2023-04-03T02:53:52;1.60;99.90
30983;DHT22;17660;52.578;13.288;2023-04-03T02:56:19;1.70;99.90
30983;DHT22;17660;52.578;13.288;2023-04-03T02:58:46;1.50;99.90
30983;DHT22;17660;52.578;13.288;2023-04-03T03:01:13;1.50;99.90
30983;DHT22;17660;52.578;13.288;2023-04-03T03:03:40;1.70;99.90
30983;DHT22;17660;52.578;13.288;2023-04-03T03:06:08;1.50;99.90
30983;DHT22;17660;52.578;13.288;2023-04-03T03:08:36;1.50;99.90
30983;DHT22;17660;52.578;13.288;2023-04-03T03:11:03;1.50;99.90
30983;DHT22;17660;52.578;13.288;2023-04-03T03:13:30;1.50;99.90
30983;DHT22;17660;52.578;13.288;2023-04-03T03:15:57;1.60;99.90
30983;DHT22;17660;52.578;13.288;2023-04-03T03:18:24;1.50;99.90
30983;DHT22;17660;52.578;13.288;2023-04-03T03:20:51;1.70;99.90
30983;DHT22;17660;52.578;13.288;2023-04-03T03:23:19;1.50;99.90
30983;DHT22;17660;52.578;13.288;2023-04-03T03:25:45;1.50;99.90
30983;DHT22;17660;52.578;13.288;2023-04-03T03:28:12;1.50;99.90
30983;DHT22;17660;52.578;13.288;2023-04-03T03:30:39;1.50;99.90
30983;DHT22;17660;52.578;13.288;2023-04-03T03:33:05;1.60;99.90
30983;DHT22;17660;52.578;13.288;2023-04-03T03:35:32;1.50;99.90
30983;DHT22;17660;52.578;13.288;2023-04-03T03:37:59;1.50;99.90
30983;DHT22;17660;52.578;13.288;2023-04-03T03:40:25;1.50;99.90
30983;DHT22;17660;52.578;13.288;2023-04-03T03:42:52;1.50;99.90
30983;DHT22;17660;52.578;13.288;2023-04-03T03:45:19;2.10;99.90
30983;DHT22;17660;52.578;13.288;2023-04-03T03:47:46;1.60;99.90
30983;DHT22;17660;52.578;13.288;2023-04-03T03:50:12;1.60;99.90
30983;DHT22;17660;52.578;13.288;2023-04-03T03:52:39;1.60;99.90
30983;DHT22;17660;52.578;13.288;2023-04-03T03:55:06;1.60;99.90
30983;DHT22;17660;52.578;13.288;2023-04-03T03:57:33;1.50;99.90
30983;DHT22;17660;52.578;13.288;2023-04-03T04:00:00;1.40;99.90
30983;DHT22;17660;52.578;13.288;2023-04-03T04:02:26;1.40;99.90
30983;DHT22;17660;52.578;13.288;2023-04-03T04:04:54;1.40;99.90
30983;DHT22;17660;52.578;13.288;2023-04-03T04:07:20;1.50;99.90
30983;DHT22;17660;52.578;13.288;2023-04-03T04:09:47;1.50;99.90
30983;DHT22;17660;52.578;13.288;2023-04-03T04:12:14;1.50;99.90
30983;DHT22;17660;52.578;13.288;2023-04-03T04:14:41;1.50;99.90
30983;DHT22;17660;52.578;13.288;2023-04-03T04:17:07;1.40;99.90
30983;DHT22;17660;52.578;13.288;2023-04-03T04:19:34;1.70;99.90
30983;DHT22;17660;52.578;13.288;2023-04-03T04:22:01;1.40;99.90
30983;DHT22;17660;52.578;13.288;2023-04-03T04:24:27;1.40;99.90
30983;DHT22;17660;52.578;13.288;2023-04-03T04:26:54;1.30;99.90
30983;DHT22;17660;52.578;13.288;2023-04-03T04:29:20;1.40;99.90
30983;DHT22;17660;52.578;13.288;2023-04-03T04:31:47;1.30;99.90
30983;DHT22;17660;52.578;13.288;2023-04-03T04:34:14;1.30;99.90
30983;DHT22;17660;52.578;13.288;2023-04-03T04:36:40;1.30;99.90
30983;DHT22;17660;52.578;13.288;2023-04-03T04:39:07;1.30;99.90
30983;DHT22;17660;52.578;13.288;2023-04-03T04:41:34;1.30;99.90
30983;DHT22;17660;52.578;13.288;2023-04-03T04:44:01;1.30;99.90
30983;DHT22;17660;52.578;13.288;2023-04-03T04:46:29;1.30;99.90
30983;DHT22;17660;52.578;13.288;2023-04-03T04:48:56;1.20;99.90
30983;DHT22;17660;52.578;13.288;2023-04-03T04:51:23;1.40;99.90
30983;DHT22;17660;52.578;13.288;2023-04-03T04:53:49;1.30;99.90
30983;DHT22;17660;52.578;13.288;2023-04-03T04:56:16;1.40;99.90
30983;DHT22;17660;52.578;13.288;2023-04-03T04:58:42;1.40;99.90
30983;DHT22;17660;52.578;13.288;2023-04-03T05:01:10;1.50;99.90
30983;DHT22;17660;52.578;13.288;2023-04-03T05:03:36;1.40;99.90
30983;DHT22;17660;52.578;13.288;2023-04-03T05:06:03;1.30;99.90
30983;DHT22;17660;52.578;13.288;2023-04-03T05:08:30;1.30;99.90
30983;DHT22;17660;52.578;13.288;2023-04-03T05:10:57;1.30;99.90
30983;DHT22;17660;52.578;13.288;2023-04-03T05:13:24;1.50;99.90
30983;DHT22;17660;52.578;13.288;2023-04-03T05:15:50;1.40;99.90
30983;DHT22;17660;52.578;13.288;2023-04-03T05:18:17;1.40;99.90
30983;DHT22;17660;52.578;13.288;2023-04-03T05:20:44;1.40;99.90
30983;DHT22;17660;52.578;13.288;2023-04-03T05:23:10;1.40;99.90
30983;DHT22;17660;52.578;13.288;2023-04-03T05:25:38;1.40;99.90
30983;DHT22;17660;52.578;13.288;2023-04-03T05:28:04;1.50;99.90
30983;DHT22;17660;52.578;13.288;2023-04-03T05:30:31;1.60;99.90
30983;DHT22;17660;52.578;13.288;2023-04-03T05:32:58;1.60;99.90
30983;DHT22;17660;52.578;13.288;2023-04-03T05:35:25;1.50;99.90
30983;DHT22;17660;52.578;13.288;2023-04-03T05:37:51;1.60;99.90
30983;DHT22;17660;52.578;13.288;2023-04-03T05:40:18;1.50;99.90
30983;DHT22;17660;52.578;13.288;2023-04-03T05:42:45;1.60;99.90
30983;DHT22;17660;52.578;13.288;2023-04-03T05:45:11;1.70;99.90
30983;DHT22;17660;52.578;13.288;2023-04-03T05:47:38;1.60;99.90
30983;DHT22;17660;52.578;13.288;2023-04-03T05:50:05;1.50;99.90
30983;DHT22;17660;52.578;13.288;2023-04-03T05:52:33;1.70;99.90
30983;DHT22;17660;52.578;13.288;2023-04-03T05:55:01;1.70;99.90
30983;DHT22;17660;52.578;13.288;2023-04-03T05:57:28;1.80;99.90
30983;DHT22;17660;52.578;13.288;2023-04-03T05:59:54;1.90;99.90
30983;DHT22;17660;52.578;13.288;2023-04-03T06:02:23;2.00;99.90
30983;DHT22;17660;52.578;13.288;2023-04-03T06:04:50;2.10;99.90
30983;DHT22;17660;52.578;13.288;2023-04-03T06:07:18;2.10;99.90
30983;DHT22;17660;52.578;13.288;2023-04-03T06:09:47;2.10;99.90
30983;DHT22;17660;52.578;13.288;2023-04-03T06:12:14;2.20;99.90
30983;DHT22;17660;52.578;13.288;2023-04-03T06:14:41;2.20;99.90
30983;DHT22;17660;52.578;13.288;2023-04-03T06:17:07;2.40;99.90
30983;DHT22;17660;52.578;13.288;2023-04-03T06:19:35;2.50;99.90
30983;DHT22;17660;52.578;13.288;2023-04-03T06:22:02;2.50;99.90
30983;DHT22;17660;52.578;13.288;2023-04-03T06:24:29;2.70;99.90
30983;DHT22;17660;52.578;13.288;2023-04-03T06:26:57;2.90;99.90
30983;DHT22;17660;52.578;13.288;2023-04-03T06:29:23;3.20;99.90
30983;DHT22;17660;52.578;13.288;2023-04-03T06:31:50;3.20;99.90
30983;DHT22;17660;52.578;13.288;2023-04-03T06:34:17;3.40;99.90
30983;DHT22;17660;52.578;13.288;2023-04-03T06:36:44;3.60;99.90
30983;DHT22;17660;52.578;13.288;2023-04-03T06:39:16;3.60;99.30
30983;DHT22;17660;52.578;13.288;2023-04-03T06:41:43;3.60;98.80
30983;DHT22;17660;52.578;13.288;2023-04-03T06:44:09;3.70;98.60
30983;DHT22;17660;52.578;13.288;2023-04-03T06:46:37;3.70;98.30
30983;DHT22;17660;52.578;13.288;2023-04-03T06:49:05;3.90;98.20
30983;DHT22;17660;52.578;13.288;2023-04-03T06:51:34;3.90;98.00
30983;DHT22;17660;52.578;13.288;2023-04-03T06:54:01;4.00;97.70
30983;DHT22;17660;52.578;13.288;2023-04-03T06:56:28;4.20;97.90
30983;DHT22;17660;52.578;13.288;2023-04-03T06:58:55;4.30;97.20
30983;DHT22;17660;52.578;13.288;2023-04-03T07:01:27;4.40;96.70
30983;DHT22;17660;52.578;13.288;2023-04-03T07:03:54;4.50;95.80
30983;DHT22;17660;52.578;13.288;2023-04-03T07:06:21;4.50;95.50
30983;DHT22;17660;52.578;13.288;2023-04-03T07:08:48;4.60;94.80
30983;DHT22;17660;52.578;13.288;2023-04-03T07:11:15;4.60;94.50
30983;DHT22;17660;52.578;13.288;2023-04-03T07:13:42;4.70;94.30
30983;DHT22;17660;52.578;13.288;2023-04-03T07:16:09;4.50;93.50
30983;DHT22;17660;52.578;13.288;2023-04-03T07:18:36;4.60;93.30
30983;DHT22;17660;52.578;13.288;2023-04-03T07:21:03;4.60;92.90
30983;DHT22;17660;52.578;13.288;2023-04-03T07:23:30;4.70;92.80
30983;DHT22;17660;52.578;13.288;2023-04-03T07:25:56;4.90;92.60
30983;DHT22;17660;52.578;13.288;2023-04-03T07:28:23;4.90;92.70
30983;DHT22;17660;52.578;13.288;2023-04-03T07:31:00;5.00;92.30
30983;DHT22;17660;52.578;13.288;2023-04-03T07:33:27;5.10;92.30
30983;DHT22;17660;52.578;13.288;2023-04-03T07:35:54;5.20;91.40
30983;DHT22;17660;52.578;13.288;2023-04-03T07:38:21;6.50;91.70
30983;DHT22;17660;52.578;13.288;2023-04-03T07:40:48;5.50;90.50
30983;DHT22;17660;52.578;13.288;2023-04-03T07:43:15;5.50;90.70
30983;DHT22;17660;52.578;13.288;2023-04-03T07:45:42;5.40;89.50
30983;DHT22;17660;52.578;13.288;2023-04-03T07:48:10;5.30;90.30
30983;DHT22;17660;52.578;13.288;2023-04-03T07:50:37;5.10;90.40
30983;DHT22;17660;52.578;13.288;2023-04-03T07:53:06;5.00;90.40
30983;DHT22;17660;52.578;13.288;2023-04-03T07:55:32;5.00;90.60
30983;DHT22;17660;52.578;13.288;2023-04-03T07:58:00;5.20;90.70
30983;DHT22;17660;52.578;13.288;2023-04-03T08:00:27;5.10;90.00
30983;DHT22;17660;52.578;13.288;2023-04-03T08:02:53;5.10;90.30
30983;DHT22;17660;52.578;13.288;2023-04-03T08:05:21;5.10;89.70
30983;DHT22;17660;52.578;13.288;2023-04-03T08:07:48;5.10;90.30
30983;DHT22;17660;52.578;13.288;2023-04-03T08:10:15;5.10;89.70
30983;DHT22;17660;52.578;13.288;2023-04-03T08:12:41;5.30;90.00
30983;DHT22;17660;52.578;13.288;2023-04-03T08:15:08;5.50;89.90
30983;DHT22;17660;52.578;13.288;2023-04-03T08:17:35;5.40;89.10
30983;DHT22;17660;52.578;13.288;2023-04-03T08:20:03;5.30;89.20
30983;DHT22;17660;52.578;13.288;2023-04-03T08:22:29;5.20;87.10
30983;DHT22;17660;52.578;13.288;2023-04-03T08:24:57;5.20;88.20
30983;DHT22;17660;52.578;13.288;2023-04-03T08:27:25;5.30;87.40
30983;DHT22;17660;52.578;13.288;2023-04-03T08:29:52;5.40;87.30
30983;DHT22;17660;52.578;13.288;2023-04-03T08:32:19;5.50;86.00
30983;DHT22;17660;52.578;13.288;2023-04-03T08:34:46;5.70;86.30
30983;DHT22;17660;52.578;13.288;2023-04-03T08:37:12;5.60;84.80
30983;DHT22;17660;52.578;13.288;2023-04-03T08:39:39;5.50;83.60
30983;DHT22;17660;52.578;13.288;2023-04-03T08:42:12;5.50;84.10
30983;DHT22;17660;52.578;13.288;2023-04-03T08:47:13;5.60;84.30
30983;DHT22;17660;52.578;13.288;2023-04-03T08:49:48;5.60;84.40
30983;DHT22;17660;52.578;13.288;2023-04-03T08:52:19;6.00;83.60
30983;DHT22;17660;52.578;13.288;2023-04-03T08:54:51;6.20;84.40
30983;DHT22;17660;52.578;13.288;2023-04-03T08:57:29;6.50;84.50
30983;DHT22;17660;52.578;13.288;2023-04-03T09:00:01;7.50;81.00
30983;DHT22;17660;52.578;13.288;2023-04-03T09:02:31;8.70;78.90
30983;DHT22;17660;52.578;13.288;2023-04-03T09:05:01;9.40;75.60
30983;DHT22;17660;52.578;13.288;2023-04-03T09:10:32;9.10;72.30
30983;DHT22;17660;52.578;13.288;2023-04-03T09:13:01;8.70;72.20
30983;DHT22;17660;52.578;13.288;2023-04-03T09:15:29;8.60;73.50
30983;DHT22;17660;52.578;13.288;2023-04-03T09:18:20;8.30;73.30
30983;DHT22;17660;52.578;13.288;2023-04-03T09:20:54;7.80;72.70
30983;DHT22;17660;52.578;13.288;2023-04-03T09:25:53;7.50;73.50
30983;DHT22;17660;52.578;13.288;2023-04-03T09:28:21;7.10;74.00
30983;DHT22;17660;52.578;13.288;2023-04-03T09:30:48;6.90;73.80
30983;DHT22;17660;52.578;13.288;2023-04-03T09:33:14;7.90;70.80
30983;DHT22;17660;52.578;13.288;2023-04-03T09:35:42;8.30;71.00
30983;DHT22;17660;52.578;13.288;2023-04-03T09:38:18;8.40;69.00
30983;DHT22;17660;52.578;13.288;2023-04-03T09:40:46;8.20;69.20
30983;DHT22;17660;52.578;13.288;2023-04-03T09:45:44;7.30;70.20
30983;DHT22;17660;52.578;13.288;2023-04-03T09:53:32;7.10;70.00
30983;DHT22;17660;52.578;13.288;2023-04-03T09:55:59;7.00;70.90
30983;DHT22;17660;52.578;13.288;2023-04-03T09:58:27;7.10;70.50
30983;DHT22;17660;52.578;13.288;2023-04-03T10:01:27;7.30;68.30
30983;DHT22;17660;52.578;13.288;2023-04-03T10:06:35;7.70;68.30
30983;DHT22;17660;52.578;13.288;2023-04-03T10:09:03;7.90;68.80
30983;DHT22;17660;52.578;13.288;2023-04-03T10:11:31;8.20;67.40
30983;DHT22;17660;52.578;13.288;2023-04-03T10:13:59;9.50;66.50
30983;DHT22;17660;52.578;13.288;2023-04-03T10:19:03;10.50;63.20
30983;DHT22;17660;52.578;13.288;2023-04-03T10:21:37;10.60;60.90
30983;DHT22;17660;52.578;13.288;2023-04-03T10:34:24;9.40;64.00
30983;DHT22;17660;52.578;13.288;2023-04-03T10:37:10;9.20;61.80
30983;DHT22;17660;52.578;13.288;2023-04-03T10:42:29;8.60;64.70
30983;DHT22;17660;52.578;13.288;2023-04-03T10:47:57;8.30;65.30
30983;DHT22;17660;52.578;13.288;2023-04-03T10:53:10;8.60;64.70
30983;DHT22;17660;52.578;13.288;2023-04-03T10:58:21;9.90;64.10
30983;DHT22;17660;52.578;13.288;2023-04-03T11:00:51;9.80;62.70
30983;DHT22;17660;52.578;13.288;2023-04-03T11:05:47;8.60;63.40
30983;DHT22;17660;52.578;13.288;2023-04-03T11:10:46;8.40;65.10
30983;DHT22;17660;52.578;13.288;2023-04-03T11:13:16;8.20;65.90
30983;DHT22;17660;52.578;13.288;2023-04-03T11:15:43;8.30;66.10
30983;DHT22;17660;52.578;13.288;2023-04-03T11:18:17;8.50;66.40
30983;DHT22;17660;52.578;13.288;2023-04-03T11:20:49;8.90;64.70
30983;DHT22;17660;52.578;13.288;2023-04-03T11:23:26;9.10;64.90
30983;DHT22;17660;52.578;13.288;2023-04-03T11:26:12;9.50;64.60
30983;DHT22;17660;52.578;13.288;2023-04-03T11:28:39;9.30;63.50
30983;DHT22;17660;52.578;13.288;2023-04-03T11:36:26;8.60;65.30
30983;DHT22;17660;52.578;13.288;2023-04-03T11:39:06;8.40;66.10
30983;DHT22;17660;52.578;13.288;2023-04-03T11:41:34;8.20;66.70
30983;DHT22;17660;52.578;13.288;2023-04-03T11:52:09;8.00;66.60
30983;DHT22;17660;52.578;13.288;2023-04-03T11:54:43;7.80;67.60
30983;DHT22;17660;52.578;13.288;2023-04-03T11:59:57;7.90;67.80
30983;DHT22;17660;52.578;13.288;2023-04-03T12:02:36;8.10;67.70
30983;DHT22;17660;52.578;13.288;2023-04-03T12:05:26;8.10;66.70
30983;DHT22;17660;52.578;13.288;2023-04-03T12:10:40;8.40;66.80
30983;DHT22;17660;52.578;13.288;2023-04-03T12:13:13;8.20;66.70
30983;DHT22;17660;52.578;13.288;2023-04-03T12:15:47;8.30;66.10
30983;DHT22;17660;52.578;13.288;2023-04-03T12:18:31;8.10;67.10
30983;DHT22;17660;52.578;13.288;2023-04-03T12:20:58;8.20;68.80
30983;DHT22;17660;52.578;13.288;2023-04-03T12:23:27;8.40;68.00
30983;DHT22;17660;52.578;13.288;2023-04-03T12:26:03;8.70;67.10
30983;DHT22;17660;52.578;13.288;2023-04-03T12:28:35;8.40;67.40
30983;DHT22;17660;52.578;13.288;2023-04-03T12:31:03;8.50;67.70
30983;DHT22;17660;52.578;13.288;2023-04-03T12:36:11;8.70;66.90
30983;DHT22;17660;52.578;13.288;2023-04-03T12:41:19;8.40;67.50
30983;DHT22;17660;52.578;13.288;2023-04-03T12:44:03;8.30;66.70
30983;DHT22;17660;52.578;13.288;2023-04-03T12:46:35;8.40;68.20
30983;DHT22;17660;52.578;13.288;2023-04-03T12:49:10;8.70;66.60
30983;DHT22;17660;52.578;13.288;2023-04-03T12:51:39;10.30;66.00
30983;DHT22;17660;52.578;13.288;2023-04-03T12:56:40;11.30;62.50
30983;DHT22;17660;52.578;13.288;2023-04-03T13:01:39;11.00;61.80
30983;DHT22;17660;52.578;13.288;2023-04-03T13:04:06;10.40;62.00
30983;DHT22;17660;52.578;13.288;2023-04-03T13:06:37;10.10;62.40
30983;DHT22;17660;52.578;13.288;2023-04-03T13:09:05;9.50;62.80
30983;DHT22;17660;52.578;13.288;2023-04-03T13:11:34;8.80;64.40
30983;DHT22;17660;52.578;13.288;2023-04-03T13:14:03;8.20;65.70
30983;DHT22;17660;52.578;13.288;2023-04-03T13:16:32;8.10;66.00
30983;DHT22;17660;52.578;13.288;2023-04-03T13:19:00;7.90;66.50
30983;DHT22;17660;52.578;13.288;2023-04-03T13:21:30;7.70;67.60
30983;DHT22;17660;52.578;13.288;2023-04-03T13:23:59;7.70;67.50
30983;DHT22;17660;52.578;13.288;2023-04-03T13:26:41;7.70;68.60
30983;DHT22;17660;52.578;13.288;2023-04-03T13:29:17;7.70;69.20
30983;DHT22;17660;52.578;13.288;2023-04-03T13:31:56;7.90;68.20
30983;DHT22;17660;52.578;13.288;2023-04-03T13:34:24;7.80;69.40
30983;DHT22;17660;52.578;13.288;2023-04-03T13:36:59;7.70;69.40
30983;DHT22;17660;52.578;13.288;2023-04-03T13:39:37;7.60;69.30
30983;DHT22;17660;52.578;13.288;2023-04-03T13:42:24;7.70;69.60
30983;DHT22;17660;52.578;13.288;2023-04-03T13:47:37;7.60;69.50
30983;DHT22;17660;52.578;13.288;2023-04-03T14:00:37;7.10;71.30
30983;DHT22;17660;52.578;13.288;2023-04-03T14:03:24;7.00;71.20
30983;DHT22;17660;52.578;13.288;2023-04-03T14:05:51;7.10;70.70
30983;DHT22;17660;52.578;13.288;2023-04-03T14:08:18;7.20;70.90
30983;DHT22;17660;52.578;13.288;2023-04-03T14:10:57;7.30;71.00
30983;DHT22;17660;52.578;13.288;2023-04-03T14:13:24;7.20;72.10
30983;DHT22;17660;52.578;13.288;2023-04-03T14:15:51;7.10;72.10
30983;DHT22;17660;52.578;13.288;2023-04-03T14:18:20;7.20;72.30
30983;DHT22;17660;52.578;13.288;2023-04-03T14:20:47;7.30;72.00
30983;DHT22;17660;52.578;13.288;2023-04-03T14:23:14;7.30;71.30
30983;DHT22;17660;52.578;13.288;2023-04-03T14:25:41;7.20;72.80
30983;DHT22;17660;52.578;13.288;2023-04-03T14:28:13;7.10;73.40
30983;DHT22;17660;52.578;13.288;2023-04-03T14:30:40;7.30;72.90
30983;DHT22;17660;52.578;13.288;2023-04-03T14:33:09;7.40;72.30
30983;DHT22;17660;52.578;13.288;2023-04-03T14:35:37;7.50;72.20
30983;DHT22;17660;52.578;13.288;2023-04-03T14:38:12;7.60;72.20
30983;DHT22;17660;52.578;13.288;2023-04-03T14:40:46;9.30;69.70
30983;DHT22;17660;52.578;13.288;2023-04-03T14:43:13;10.50;66.90
30983;DHT22;17660;52.578;13.288;2023-04-03T14:45:39;10.20;66.20
30983;DHT22;17660;52.578;13.288;2023-04-03T14:48:06;9.80;66.60
30983;DHT22;17660;52.578;13.288;2023-04-03T14:50:36;9.20;67.80
30983;DHT22;17660;52.578;13.288;2023-04-03T14:53:03;8.60;68.80
30983;DHT22;17660;52.578;13.288;2023-04-03T14:55:31;8.30;69.60
30983;DHT22;17660;52.578;13.288;2023-04-03T14:57:58;8.00;71.40
30983;DHT22;17660;52.578;13.288;2023-04-03T15:00:25;7.60;71.60
30983;DHT22;17660;52.578;13.288;2023-04-03T15:02:51;7.50;72.80
30983;DHT22;17660;52.578;13.288;2023-04-03T15:05:18;7.40;73.20
30983;DHT22;17660;52.578;13.288;2023-04-03T15:07:50;7.30;73.20
30983;DHT22;17660;52.578;13.288;2023-04-03T15:10:23;7.20;73.80
30983;DHT22;17660;52.578;13.288;2023-04-03T15:12:50;7.00;74.00
30983;DHT22;17660;52.578;13.288;2023-04-03T15:15:17;7.00;74.30
30983;DHT22;17660;52.578;13.288;2023-04-03T15:17:46;6.80;75.10
30983;DHT22;17660;52.578;13.288;2023-04-03T15:20:15;6.70;74.90
30983;DHT22;17660;52.578;13.288;2023-04-03T15:22:42;6.60;75.70
30983;DHT22;17660;52.578;13.288;2023-04-03T15:25:09;6.50;75.90
30983;DHT22;17660;52.578;13.288;2023-04-03T15:27:36;6.40;76.90
30983;DHT22;17660;52.578;13.288;2023-04-03T15:30:07;6.50;77.40
30983;DHT22;17660;52.578;13.288;2023-04-03T15:32:34;6.40;77.20
30983;DHT22;17660;52.578;13.288;2023-04-03T15:35:01;6.20;77.20
30983;DHT22;17660;52.578;13.288;2023-04-03T15:37:28;6.20;77.20
30983;DHT22;17660;52.578;13.288;2023-04-03T15:39:55;6.20;78.30
30983;DHT22;17660;52.578;13.288;2023-04-03T15:42:21;6.20;78.40
30983;DHT22;17660;52.578;13.288;2023-04-03T15:44:48;6.20;78.00
30983;DHT22;17660;52.578;13.288;2023-04-03T15:47:15;6.20;78.80
30983;DHT22;17660;52.578;13.288;2023-04-03T15:49:41;6.10;80.20
30983;DHT22;17660;52.578;13.288;2023-04-03T15:52:08;6.10;79.80
30983;DHT22;17660;52.578;13.288;2023-04-03T15:54:35;6.10;80.10
30983;DHT22;17660;52.578;13.288;2023-04-03T15:57:01;6.30;79.60
30983;DHT22;17660;52.578;13.288;2023-04-03T15:59:28;6.20;79.40
30983;DHT22;17660;52.578;13.288;2023-04-03T16:01:58;6.10;79.60
30983;DHT22;17660;52.578;13.288;2023-04-03T16:04:27;6.20;80.00
30983;DHT22;17660;52.578;13.288;2023-04-03T16:06:54;6.20;80.00
30983;DHT22;17660;52.578;13.288;2023-04-03T16:09:21;6.20;80.40
30983;DHT22;17660;52.578;13.288;2023-04-03T16:11:47;6.10;80.50
30983;DHT22;17660;52.578;13.288;2023-04-03T16:14:14;6.10;80.80
30983;DHT22;17660;52.578;13.288;2023-04-03T16:16:41;6.20;80.10
30983;DHT22;17660;52.578;13.288;2023-04-03T16:19:07;6.80;79.80
30983;DHT22;17660;52.578;13.288;2023-04-03T16:21:35;7.90;76.90
30983;DHT22;17660;52.578;13.288;2023-04-03T16:24:01;8.50;75.30
30983;DHT22;17660;52.578;13.288;2023-04-03T16:26:28;8.80;74.40
30983;DHT22;17660;52.578;13.288;2023-04-03T16:28:55;8.70;74.40
30983;DHT22;17660;52.578;13.288;2023-04-03T16:31:22;8.30;74.90
30983;DHT22;17660;52.578;13.288;2023-04-03T16:33:50;7.90;76.30
30983;DHT22;17660;52.578;13.288;2023-04-03T16:36:17;7.70;76.30
30983;DHT22;17660;52.578;13.288;2023-04-03T16:38:44;7.50;77.40
30983;DHT22;17660;52.578;13.288;2023-04-03T16:41:10;7.30;77.90
30983;DHT22;17660;52.578;13.288;2023-04-03T16:43:37;7.00;78.30
30983;DHT22;17660;52.578;13.288;2023-04-03T16:46:04;6.70;79.20
30983;DHT22;17660;52.578;13.288;2023-04-03T16:48:31;6.40;80.50
30983;DHT22;17660;52.578;13.288;2023-04-03T16:50:58;6.30;81.10
30983;DHT22;17660;52.578;13.288;2023-04-03T16:53:25;6.10;81.70
30983;DHT22;17660;52.578;13.288;2023-04-03T16:55:51;5.90;82.10
30983;DHT22;17660;52.578;13.288;2023-04-03T16:58:21;5.90;82.80
30983;DHT22;17660;52.578;13.288;2023-04-03T17:00:49;5.80;82.70
30983;DHT22;17660;52.578;13.288;2023-04-03T17:03:16;5.70;83.10
30983;DHT22;17660;52.578;13.288;2023-04-03T17:05:46;5.70;83.00
30983;DHT22;17660;52.578;13.288;2023-04-03T17:08:12;5.70;83.20
30983;DHT22;17660;52.578;13.288;2023-04-03T17:10:40;5.70;83.40
30983;DHT22;17660;52.578;13.288;2023-04-03T17:13:06;5.70;83.50